Time;durP1;ratioP1;P1;durP2;ratioP2;P2;SDS_P1;SDS_P2;PMS_P1;PMS_P2;Temp;Humidity;BMP_temperature;BMP_pressure;BME280_temperature;BME280_humidity;BME280_pressure;Samples;Min_cycle;Max_cycle;Signal;HPM_P1;HPM_P2
2021/11/06 00:00:25;;;;;;;17.25;9.98;;;2.80;92.40;;;;;;6246781;23;20008;-78
2021/11/06 00:02:51;;;;;;;24.10;11.32;;;2.80;92.30;;;;;;6220556;23;20004;-77
2021/11/06 00:05:17;;;;;;;21.67;11.10;;;2.70;92.80;;;;;;6220932;23;20004;-78
2021/11/06 00:07:43;;;;;;;23.42;11.45;;;2.70;93.10;;;;;;6220160;23;20279;-78
2021/11/06 00:10:10;;;;;;;24.55;12.98;;;2.60;92.60;;;;;;6219145;23;20019;-77
2021/11/06 00:12:37;;;;;;;25.95;12.80;;;2.60;92.00;;;;;;6245006;23;20000;-78
2021/11/06 00:15:04;;;;;;;24.27;12.40;;;2.60;91.60;;;;;;6219462;23;20016;-77
2021/11/06 00:17:30;;;;;;;22.77;13.50;;;2.60;91.80;;;;;;6220170;23;20358;-79
2021/11/06 00:19:56;;;;;;;23.80;15.10;;;2.60;91.40;;;;;;6219613;23;20095;-78
2021/11/06 00:22:22;;;;;;;32.15;16.08;;;2.60;91.60;;;;;;6246707;23;20630;-78
2021/11/06 00:24:47;;;;;;;24.48;15.05;;;2.60;91.90;;;;;;6221104;23;20011;-78
2021/11/06 00:27:13;;;;;;;21.02;12.80;;;2.60;91.50;;;;;;6244907;23;20008;-78
2021/11/06 00:29:39;;;;;;;25.80;13.27;;;2.60;92.10;;;;;;6219631;23;20027;-79
2021/11/06 00:32:05;;;;;;;25.13;13.02;;;2.40;93.00;;;;;;6246027;23;20000;-78
2021/11/06 00:34:34;;;;;;;26.58;13.32;;;2.30;92.70;;;;;;6220274;23;20247;-78
2021/11/06 00:37:00;;;;;;;25.35;13.38;;;2.30;92.00;;;;;;6218484;23;20255;-78
2021/11/06 00:39:26;;;;;;;24.92;13.15;;;2.30;91.70;;;;;;6246262;23;20426;-80
2021/11/06 00:41:51;;;;;;;28.38;13.48;;;2.30;92.10;;;;;;6245900;23;20035;-78
2021/11/06 00:44:18;;;;;;;29.83;13.93;;;2.10;93.40;;;;;;6246974;23;20127;-79
2021/11/06 00:46:45;;;;;;;22.88;12.30;;;1.90;93.60;;;;;;6247136;23;20541;-78
2021/11/06 00:49:11;;;;;;;25.67;12.75;;;1.60;93.60;;;;;;6246745;23;20000;-78
2021/11/06 00:51:36;;;;;;;24.17;13.15;;;1.50;93.50;;;;;;6220310;23;20000;-78
2021/11/06 00:54:02;;;;;;;27.15;12.93;;;1.40;92.60;;;;;;6222885;23;20008;-79
2021/11/06 00:56:28;;;;;;;27.15;12.60;;;1.30;91.90;;;;;;6247215;23;20061;-78
2021/11/06 00:58:54;;;;;;;28.77;12.90;;;1.50;91.00;;;;;;6249413;23;20266;-78
2021/11/06 01:01:19;;;;;;;26.98;13.35;;;1.50;91.70;;;;;;6248951;23;19997;-78
2021/11/06 01:03:45;;;;;;;20.30;11.18;;;1.60;90.90;;;;;;6248333;23;20434;-77
2021/11/06 01:06:11;;;;;;;25.15;12.35;;;1.50;92.00;;;;;;6246043;23;20016;-78
2021/11/06 01:08:37;;;;;;;24.95;13.10;;;1.50;91.10;;;;;;6246668;23;20000;-77
2021/11/06 01:11:03;;;;;;;27.38;13.20;;;1.60;90.50;;;;;;6218240;23;20008;-79
2021/11/06 01:13:29;;;;;;;27.63;13.48;;;1.60;90.70;;;;;;6247188;23;20309;-79
2021/11/06 01:15:57;;;;;;;36.47;15.38;;;1.70;90.00;;;;;;6246811;23;19997;-78
2021/11/06 01:18:23;;;;;;;21.52;11.88;;;1.70;90.70;;;;;;6246298;23;20074;-78
2021/11/06 01:20:48;;;;;;;19.52;11.20;;;1.60;90.80;;;;;;6219851;23;20004;-78
2021/11/06 01:23:14;;;;;;;26.00;12.52;;;1.60;90.70;;;;;;6219918;23;20015;-79
2021/11/06 01:25:40;;;;;;;26.40;12.65;;;1.50;90.80;;;;;;6245112;23;20008;-78
2021/11/06 01:28:05;;;;;;;26.75;13.52;;;1.50;89.90;;;;;;6246508;23;20062;-78
2021/11/06 01:30:31;;;;;;;23.80;12.60;;;1.60;89.50;;;;;;6246598;23;20038;-79
2021/11/06 01:32:57;;;;;;;28.15;13.80;;;1.60;89.70;;;;;;6245960;23;20077;-80
2021/11/06 01:35:23;;;;;;;33.35;15.05;;;1.60;89.70;;;;;;6246087;23;20425;-78
2021/11/06 01:37:49;;;;;;;33.22;18.27;;;1.60;90.00;;;;;;6246467;23;20003;-78
2021/11/06 01:40:18;;;;;;;35.45;19.13;;;1.60;90.00;;;;;;6219973;23;20008;-78
2021/11/06 01:42:44;;;;;;;31.20;15.23;;;1.50;90.20;;;;;;6244862;23;20035;-78
2021/11/06 01:45:14;;;;;;;29.20;15.63;;;1.50;90.00;;;;;;6220556;23;20138;-78
2021/11/06 01:47:39;;;;;;;29.38;15.10;;;1.40;90.40;;;;;;6246436;23;20004;-79
2021/11/06 01:50:06;;;;;;;32.47;16.45;;;1.40;89.90;;;;;;6221466;23;20404;-78
2021/11/06 01:52:32;;;;;;;34.00;16.50;;;1.50;89.60;;;;;;6247986;23;20054;-78
2021/11/06 01:54:57;;;;;;;35.65;16.85;;;1.50;89.60;;;;;;6250114;23;20000;-79
2021/11/06 01:57:27;;;;;;;26.13;14.88;;;1.40;89.90;;;;;;6248405;23;20067;-78
2021/11/06 01:59:56;;;;;;;40.13;18.70;;;1.50;89.20;;;;;;6248742;23;20370;-78
2021/11/06 02:02:22;;;;;;;37.10;16.75;;;1.50;89.30;;;;;;6222238;23;20008;-78
2021/11/06 02:04:49;;;;;;;36.50;18.55;;;1.50;89.70;;;;;;6222064;23;20011;-79
2021/11/06 02:07:14;;;;;;;35.83;18.08;;;1.50;89.50;;;;;;6222511;23;20336;-78
2021/11/06 02:09:40;;;;;;;29.20;15.73;;;1.60;89.20;;;;;;6222267;23;20016;-77
2021/11/06 02:12:07;;;;;;;39.65;17.58;;;1.50;89.80;;;;;;6247509;23;20258;-78
2021/11/06 02:14:34;;;;;;;42.60;18.63;;;1.30;90.60;;;;;;6248281;23;19996;-78
2021/11/06 02:16:59;;;;;;;36.90;17.38;;;1.10;91.20;;;;;;6248532;23;20049;-79
2021/11/06 02:19:30;;;;;;;35.47;17.27;;;1.00;91.10;;;;;;6248349;23;20004;-79
2021/11/06 02:21:58;;;;;;;33.85;15.98;;;0.80;90.90;;;;;;6221743;23;20004;-79
2021/11/06 02:24:23;;;;;;;37.50;17.75;;;0.70;90.70;;;;;;6247777;23;20093;-78
2021/11/06 02:26:49;;;;;;;34.05;17.52;;;0.90;88.90;;;;;;6220650;23;20004;-79
2021/11/06 02:29:16;;;;;;;40.13;19.73;;;1.00;88.80;;;;;;6221522;23;20000;-79
2021/11/06 02:31:42;;;;;;;38.70;17.98;;;1.10;88.80;;;;;;6220911;23;20273;-78
2021/11/06 02:34:08;;;;;;;45.67;19.63;;;1.10;89.20;;;;;;6220549;23;20103;-79
2021/11/06 02:36:33;;;;;;;38.65;18.40;;;1.20;88.90;;;;;;6248316;23;20032;-79
2021/11/06 02:38:59;;;;;;;49.03;19.83;;;1.20;89.40;;;;;;6248599;23;20026;-78
2021/11/06 02:41:29;;;;;;;42.35;19.45;;;1.20;89.30;;;;;;6247166;23;20270;-78
2021/11/06 02:43:55;;;;;;;36.92;17.48;;;1.20;89.20;;;;;;6221066;23;20054;-78
2021/11/06 02:46:24;;;;;;;29.83;16.95;;;1.10;89.30;;;;;;6248221;23;20008;-79
2021/11/06 02:48:50;;;;;;;34.13;18.20;;;1.10;88.90;;;;;;6248028;23;20004;-78
2021/11/06 02:51:15;;;;;;;40.85;17.95;;;1.20;88.80;;;;;;6247438;23;20059;-78
2021/11/06 02:53:41;;;;;;;35.35;15.70;;;1.20;88.80;;;;;;6247564;23;20004;-78
2021/11/06 02:56:07;;;;;;;32.17;15.43;;;1.20;88.70;;;;;;6246532;23;20058;-78
2021/11/06 02:58:34;;;;;;;32.85;15.98;;;1.20;88.90;;;;;;6249948;23;20004;-78
2021/11/06 03:01:00;;;;;;;36.17;17.35;;;1.20;88.80;;;;;;6222143;23;20053;-77
2021/11/06 03:03:26;;;;;;;37.10;18.90;;;1.20;88.80;;;;;;6246776;23;20004;-77
2021/11/06 03:05:52;;;;;;;36.63;18.50;;;1.20;88.70;;;;;;6247054;23;20011;-77
2021/11/06 03:08:17;;;;;;;41.50;20.27;;;1.20;88.70;;;;;;6220216;23;20004;-77
2021/11/06 03:10:43;;;;;;;34.20;17.85;;;1.20;88.40;;;;;;6219707;23;20012;-79
2021/11/06 03:13:09;;;;;;;31.15;16.92;;;1.30;88.40;;;;;;6221704;23;19996;-78
2021/11/06 03:15:34;;;;;;;39.70;19.52;;;1.20;88.80;;;;;;6248182;23;20020;-78
2021/11/06 03:18:00;;;;;;;34.47;16.35;;;1.20;88.50;;;;;;6247758;23;20005;-79
2021/11/06 03:20:25;;;;;;;33.97;15.68;;;1.20;88.60;;;;;;6247668;23;20000;-79
2021/11/06 03:22:57;;;;;;;28.77;15.50;;;1.10;89.80;;;;;;6247649;23;20015;-78
2021/11/06 03:25:23;;;;;;;27.45;13.88;;;1.00;89.40;;;;;;6247344;23;20032;-78
2021/11/06 03:27:48;;;;;;;41.33;16.05;;;0.90;89.70;;;;;;6247281;23;20004;-77
2021/11/06 03:30:14;;;;;;;29.42;14.52;;;0.80;89.60;;;;;;6247620;23;20324;-78
2021/11/06 03:32:40;;;;;;;34.45;17.20;;;0.80;88.90;;;;;;6247064;23;20404;-79
2021/11/06 03:35:07;;;;;;;41.03;17.60;;;1.00;88.30;;;;;;6247476;23;20004;-77
2021/11/06 03:37:34;;;;;;;29.27;17.17;;;0.90;89.90;;;;;;6248371;23;20266;-78
2021/11/06 03:39:59;;;;;;;41.65;17.90;;;0.70;89.80;;;;;;6247957;23;20008;-80
2021/11/06 03:42:28;;;;;;;41.20;18.40;;;0.70;89.60;;;;;;6246774;23;20430;-79
2021/11/06 03:44:54;;;;;;;34.60;17.45;;;0.60;89.80;;;;;;6247220;23;20011;-79
2021/11/06 03:47:19;;;;;;;27.00;14.27;;;0.60;89.30;;;;;;6248246;23;20020;-79
2021/11/06 03:49:48;;;;;;;28.30;14.90;;;0.50;89.20;;;;;;6252010;22;20016;-78
2021/11/06 03:52:14;;;;;;;35.63;16.00;;;0.50;89.20;;;;;;6247961;23;19992;-78
2021/11/06 03:54:41;;;;;;;32.40;15.60;;;0.50;88.90;;;;;;6247403;23;20028;-78
2021/11/06 03:57:07;;;;;;;29.25;14.57;;;0.60;88.60;;;;;;6219379;23;20015;-78
2021/11/06 03:59:33;;;;;;;28.50;14.35;;;0.60;88.90;;;;;;6220023;23;20004;-78
2021/11/06 04:01:58;;;;;;;29.38;13.48;;;0.60;89.10;;;;;;6249877;23;20007;-78
2021/11/06 04:04:24;;;;;;;41.22;15.20;;;0.40;89.90;;;;;;6248121;23;20079;-78
2021/11/06 04:06:50;;;;;;;29.65;13.50;;;0.30;90.10;;;;;;6247128;23;20273;-77
2021/11/06 04:09:15;;;;;;;21.30;12.02;;;0.30;89.50;;;;;;6247571;23;20407;-78
2021/11/06 04:11:41;;;;;;;30.20;13.77;;;0.30;88.90;;;;;;6219192;23;20004;-78
2021/11/06 04:14:07;;;;;;;31.10;13.68;;;0.30;88.30;;;;;;6247306;23;20022;-79
2021/11/06 04:16:32;;;;;;;47.08;16.45;;;0.40;88.30;;;;;;6221297;23;20111;-78
2021/11/06 04:18:58;;;;;;;24.25;13.57;;;0.40;88.90;;;;;;6247537;23;20055;-78
2021/11/06 04:21:24;;;;;;;35.05;15.23;;;0.20;90.00;;;;;;6247316;23;20427;-78
2021/11/06 04:23:50;;;;;;;24.73;12.52;;;0.10;89.50;;;;;;6246876;23;20027;-78
2021/11/06 04:26:15;;;;;;;33.03;15.02;;;0.10;89.30;;;;;;6219680;23;20004;-78
2021/11/06 04:28:43;;;;;;;31.45;13.52;;;0.10;89.00;;;;;;6246115;23;20000;-78
2021/11/06 04:31:08;;;;;;;34.08;14.32;;;0.10;89.00;;;;;;6247784;23;20007;-79
2021/11/06 04:33:34;;;;;;;31.88;14.32;;;0.10;89.30;;;;;;6220723;23;20004;-79
2021/11/06 04:36:01;;;;;;;29.13;13.45;;;0.00;89.30;;;;;;6247301;23;20366;-79
2021/11/06 04:38:27;;;;;;;28.35;13.13;;;0.00;89.30;;;;;;6246762;23;20239;-78
2021/11/06 04:40:53;;;;;;;22.63;11.80;;;-0.10;90.20;;;;;;6244408;23;20008;-78
2021/11/06 04:43:19;;;;;;;36.53;14.30;;;-0.20;89.80;;;;;;6246985;23;20008;-78
2021/11/06 04:45:44;;;;;;;30.70;13.77;;;-0.30;89.30;;;;;;6247286;23;20221;-78
2021/11/06 04:48:10;;;;;;;44.92;16.42;;;-0.30;89.40;;;;;;6246836;23;20008;-79
2021/11/06 04:50:36;;;;;;;27.20;13.10;;;-0.40;90.00;;;;;;6220611;23;20008;-78
2021/11/06 04:53:01;;;;;;;25.02;12.65;;;-0.50;90.50;;;;;;6220074;23;20285;-77
2021/11/06 04:55:27;;;;;;;32.95;14.77;;;-0.60;89.70;;;;;;6218858;23;20008;-79
2021/11/06 04:57:53;;;;;;;30.27;15.52;;;-0.50;88.80;;;;;;6246493;23;20006;-78
2021/11/06 05:00:18;;;;;;;33.70;15.57;;;-0.50;89.70;;;;;;6247350;23;20010;-79
2021/11/06 05:02:44;;;;;;;24.90;13.23;;;-0.60;89.60;;;;;;6247059;23;20084;-79
2021/11/06 05:05:10;;;;;;;28.83;13.48;;;-0.60;89.80;;;;;;6249372;23;20266;-79
2021/11/06 05:07:36;;;;;;;26.90;13.73;;;-0.60;89.30;;;;;;6246534;23;20016;-79
2021/11/06 05:10:04;;;;;;;21.55;12.02;;;-0.60;89.20;;;;;;6245801;23;20012;-79
2021/11/06 05:12:30;;;;;;;21.50;11.57;;;-0.60;89.40;;;;;;6218082;23;20104;-78
2021/11/06 05:14:56;;;;;;;18.60;10.48;;;-0.50;88.70;;;;;;6246829;23;20373;-79
2021/11/06 05:17:21;;;;;;;21.27;10.80;;;-0.50;89.10;;;;;;6247283;23;20023;-79
2021/11/06 05:19:47;;;;;;;23.50;13.38;;;-0.50;89.00;;;;;;6220501;23;20015;-78
2021/11/06 05:22:14;;;;;;;23.98;12.52;;;-0.60;89.60;;;;;;6219034;23;20016;-79
2021/11/06 05:24:39;;;;;;;44.92;16.85;;;-0.60;89.70;;;;;;6219172;23;20091;-79
2021/11/06 05:27:06;;;;;;;20.73;11.10;;;-0.70;89.90;;;;;;6218251;23;20024;-78
2021/11/06 05:29:32;;;;;;;26.73;13.15;;;-0.80;90.10;;;;;;6220021;23;20008;-79
2021/11/06 05:31:59;;;;;;;37.55;15.18;;;-0.70;88.60;;;;;;6245899;23;19996;-79
2021/11/06 05:34:25;;;;;;;27.38;13.18;;;-0.60;88.60;;;;;;6245294;23;20081;-78
2021/11/06 05:36:51;;;;;;;22.17;12.23;;;-0.50;88.40;;;;;;6245504;23;20004;-79
2021/11/06 05:39:16;;;;;;;24.27;13.43;;;-0.50;88.70;;;;;;6245874;23;20008;-79
2021/11/06 05:41:42;;;;;;;35.35;14.70;;;-0.50;89.40;;;;;;6217212;23;20039;-79
2021/11/06 05:44:08;;;;;;;38.63;15.65;;;-0.60;90.20;;;;;;6246031;23;20004;-79
2021/11/06 05:46:34;;;;;;;27.45;13.88;;;-0.80;91.00;;;;;;6245627;23;20019;-78
2021/11/06 05:49:00;;;;;;;40.42;17.35;;;-1.00;91.20;;;;;;6220835;23;20019;-79
2021/11/06 05:51:26;;;;;;;40.33;18.52;;;-1.00;90.50;;;;;;6246940;23;20004;-78
2021/11/06 05:53:52;;;;;;;34.25;16.05;;;-1.00;90.40;;;;;;6246047;23;20004;-79
2021/11/06 05:56:19;;;;;;;28.77;15.13;;;-1.10;90.80;;;;;;6244093;23;20019;-79
2021/11/06 05:58:44;;;;;;;32.00;15.55;;;-1.20;90.70;;;;;;6245609;23;20008;-81
2021/11/06 06:01:10;;;;;;;26.17;14.25;;;-1.30;90.50;;;;;;6246925;23;19996;-80
2021/11/06 06:03:36;;;;;;;26.60;15.10;;;-1.30;90.20;;;;;;6246153;23;20027;-79
2021/11/06 06:06:01;;;;;;;28.65;15.40;;;-1.30;90.60;;;;;;6247048;23;20283;-79
2021/11/06 06:08:27;;;;;;;29.50;15.00;;;-1.30;89.70;;;;;;6248902;23;20008;-78
2021/11/06 06:10:53;;;;;;;28.05;14.77;;;-1.30;89.50;;;;;;6218223;23;20016;-79
2021/11/06 06:13:18;;;;;;;27.70;14.57;;;-1.30;89.60;;;;;;6246728;23;20068;-79
2021/11/06 06:15:44;;;;;;;23.63;13.05;;;-1.40;90.00;;;;;;6246536;23;20231;-79
2021/11/06 06:18:10;;;;;;;19.30;11.73;;;-1.40;90.00;;;;;;6246489;23;20000;-79
2021/11/06 06:20:36;;;;;;;20.67;11.60;;;-1.40;89.20;;;;;;6246276;23;20057;-79
2021/11/06 06:23:07;;;;;;;24.30;12.93;;;-1.30;88.50;;;;;;6219684;23;20015;-80
2021/11/06 06:25:33;;;;;;;32.70;15.35;;;-1.30;89.30;;;;;;6243912;23;20039;-79
2021/11/06 06:28:04;;;;;;;23.90;13.95;;;-1.30;90.00;;;;;;6246135;23;20000;-79
2021/11/06 06:30:30;;;;;;;21.98;12.70;;;-1.30;90.30;;;;;;6245844;23;20496;-79
2021/11/06 06:32:56;;;;;;;19.33;11.40;;;-1.20;89.90;;;;;;6245689;23;20000;-78
2021/11/06 06:35:22;;;;;;;31.75;15.18;;;-1.10;88.80;;;;;;6221943;23;20081;-79
2021/11/06 06:37:49;;;;;;;31.35;16.17;;;-1.10;89.00;;;;;;6250257;23;20000;-80
2021/11/06 06:40:15;;;;;;;30.70;16.45;;;-1.00;90.10;;;;;;6221389;23;20027;-80
2021/11/06 06:42:41;;;;;;;27.50;15.65;;;-1.10;90.60;;;;;;6245848;23;20010;-80
2021/11/06 06:45:07;;;;;;;29.45;15.52;;;-1.20;90.20;;;;;;6220918;23;20004;-79
2021/11/06 06:47:33;;;;;;;29.75;16.00;;;-1.10;89.70;;;;;;6247087;23;20015;-79
2021/11/06 06:49:59;;;;;;;34.67;18.10;;;-1.10;90.30;;;;;;6220203;23;20016;-80
2021/11/06 06:52:25;;;;;;;32.70;17.52;;;-1.20;90.40;;;;;;6247181;23;20000;-80
2021/11/06 06:54:51;;;;;;;54.20;26.17;;;-1.20;90.70;;;;;;6248960;23;20069;-79
2021/11/06 06:57:16;;;;;;;42.55;23.95;;;-1.20;89.90;;;;;;6245576;23;20007;-79
2021/11/06 06:59:42;;;;;;;43.58;24.77;;;-1.20;90.10;;;;;;6247128;23;20086;-79
2021/11/06 07:02:08;;;;;;;42.80;24.08;;;-1.10;90.40;;;;;;6247727;23;20261;-80
2021/11/06 07:04:34;;;;;;;63.42;28.02;;;-1.10;90.20;;;;;;6246214;23;20004;-80
2021/11/06 07:07:00;;;;;;;41.47;24.60;;;-1.10;90.10;;;;;;6220927;23;20016;-80
2021/11/06 07:09:26;;;;;;;92.32;47.38;;;-0.90;89.60;;;;;;6248627;23;20012;-79
2021/11/06 07:11:53;;;;;;;85.78;46.08;;;-0.90;89.50;;;;;;6221778;23;20015;-80
2021/11/06 07:14:20;;;;;;;78.28;41.08;;;-0.80;89.70;;;;;;6246823;23;20000;-79
2021/11/06 07:16:47;;;;;;;76.97;38.63;;;-0.80;90.00;;;;;;6246826;23;20012;-81
2021/11/06 07:19:14;;;;;;;63.17;34.58;;;-0.70;89.80;;;;;;6246241;23;20004;-79
2021/11/06 07:21:39;;;;;;;49.95;26.65;;;-0.70;89.70;;;;;;6247470;23;20011;-79
2021/11/06 07:24:06;;;;;;;44.90;22.42;;;-0.60;89.80;;;;;;6246626;23;20261;-79
2021/11/06 07:26:33;;;;;;;58.20;40.33;;;-0.60;89.50;;;;;;6246638;23;20000;-79
2021/11/06 07:28:59;;;;;;;49.13;27.55;;;-0.50;89.30;;;;;;6246819;23;20000;-80
2021/11/06 07:31:24;;;;;;;63.13;28.58;;;-0.40;89.40;;;;;;6219815;23;20000;-79
2021/11/06 07:33:53;;;;;;;54.80;28.40;;;-0.40;89.30;;;;;;6220012;23;20079;-79
2021/11/06 07:36:23;;;;;;;46.05;25.05;;;-0.30;89.20;;;;;;6246367;23;20008;-79
2021/11/06 07:38:50;;;;;;;53.53;29.42;;;-0.20;89.20;;;;;;6247003;23;19997;-80
2021/11/06 07:41:16;;;;;;;61.80;28.20;;;-0.10;89.40;;;;;;6245949;23;20018;-80
2021/11/06 07:43:44;;;;;;;59.83;27.88;;;0.00;89.20;;;;;;6247274;23;20028;-80
2021/11/06 07:46:10;;;;;;;39.03;23.30;;;0.10;89.40;;;;;;6220229;23;20004;-80
2021/11/06 07:48:36;;;;;;;719.15;108.10;;;0.30;87.90;;;;;;6220764;23;20011;-80
2021/11/06 07:51:03;;;;;;;1409.93;138.40;;;1.00;87.30;;;;;;6221051;23;20091;-80
2021/11/06 07:53:29;;;;;;;52.05;27.33;;;1.90;88.80;;;;;;6220396;23;20404;-79
2021/11/06 07:55:55;;;;;;;40.47;22.05;;;1.90;88.20;;;;;;6219109;23;20000;-80
2021/11/06 07:58:21;;;;;;;37.75;21.40;;;1.50;87.80;;;;;;6247623;23;20050;-79
2021/11/06 08:00:47;;;;;;;34.05;18.52;;;1.40;88.30;;;;;;6219931;23;20082;-80
2021/11/06 08:03:13;;;;;;;48.70;24.92;;;1.00;90.30;;;;;;6247017;23;20301;-80
2021/11/06 08:05:39;;;;;;;36.17;21.15;;;0.70;91.40;;;;;;6245447;23;20015;-80
2021/11/06 08:08:05;;;;;;;41.67;22.73;;;0.80;91.40;;;;;;6245657;22;20007;-80
2021/11/06 08:10:31;;;;;;;38.75;22.52;;;0.90;91.00;;;;;;6245332;23;20015;-80
2021/11/06 08:13:02;;;;;;;45.70;25.63;;;1.00;90.50;;;;;;6248777;23;20000;-80
2021/11/06 08:15:28;;;;;;;45.38;26.65;;;1.30;90.00;;;;;;6248567;23;20000;-81
2021/11/06 08:17:54;;;;;;;48.15;28.60;;;1.80;86.80;;;;;;6219806;23;20012;-80
2021/11/06 08:20:22;;;;;;;39.60;24.35;;;3.00;87.50;;;;;;6246301;23;20305;-81
2021/11/06 08:22:49;;;;;;;30.13;19.75;;;4.40;89.10;;;;;;6245657;23;20012;-81
2021/11/06 08:25:16;;;;;;;29.73;18.50;;;5.10;88.90;;;;;;6245616;23;20000;-81
2021/11/06 08:27:44;;;;;;;29.98;17.13;;;6.20;88.20;;;;;;6246531;23;20403;-80
2021/11/06 08:30:10;;;;;;;32.47;19.13;;;6.60;93.00;;;;;;6247048;23;20007;-81
2021/11/06 08:32:36;;;;;;;33.80;19.80;;;6.80;98.00;;;;;;6246736;23;19996;-81
2021/11/06 08:35:02;;;;;;;24.85;15.95;;;7.10;98.00;;;;;;6246917;23;20586;-81
2021/11/06 08:37:30;;;;;;;25.77;16.98;;;6.90;98.00;;;;;;6246481;23;20003;-81
2021/11/06 08:39:56;;;;;;;17.90;11.25;;;7.40;98.00;;;;;;6246401;23;19996;-81
2021/11/06 08:42:21;;;;;;;15.63;10.70;;;7.70;98.00;;;;;;6246017;23;20008;-80
2021/11/06 08:44:48;;;;;;;13.32;9.48;;;7.40;94.70;;;;;;6246347;23;20354;-80
2021/11/06 08:47:14;;;;;;;11.77;8.23;;;7.50;96.70;;;;;;6246453;23;20011;-80
2021/11/06 08:49:40;;;;;;;14.57;8.50;;;7.80;96.50;;;;;;6220727;23;20084;-80
2021/11/06 08:52:06;;;;;;;11.18;8.20;;;8.30;93.90;;;;;;6246858;23;20358;-80
2021/11/06 08:54:31;;;;;;;11.90;8.52;;;8.80;95.20;;;;;;6246824;23;20004;-80
2021/11/06 08:56:57;;;;;;;11.90;8.13;;;9.30;92.30;;;;;;6245415;23;20105;-79
2021/11/06 08:59:23;;;;;;;9.27;7.20;;;9.60;88.60;;;;;;6220152;23;20038;-80
2021/11/06 09:01:52;;;;;;;10.98;7.70;;;9.10;92.70;;;;;;6220619;23;20051;-79
2021/11/06 09:04:19;;;;;;;9.82;6.65;;;9.20;88.90;;;;;;6220463;23;20019;-80
2021/11/06 09:06:45;;;;;;;10.30;6.50;;;9.60;89.50;;;;;;6246773;23;20038;-80
2021/11/06 09:09:14;;;;;;;10.25;7.07;;;10.00;89.90;;;;;;6246707;23;20089;-80
2021/11/06 09:11:41;;;;;;;10.57;7.18;;;9.60;86.70;;;;;;6218875;23;20451;-79
2021/11/06 09:14:09;;;;;;;11.85;7.70;;;9.20;89.20;;;;;;6246753;23;20000;-80
2021/11/06 09:16:35;;;;;;;12.20;8.05;;;9.80;88.30;;;;;;6248950;23;20034;-79
2021/11/06 09:19:02;;;;;;;12.18;8.05;;;10.30;87.30;;;;;;6247432;23;19996;-78
2021/11/06 09:21:29;;;;;;;11.77;7.28;;;10.70;85.70;;;;;;6220276;23;20004;-78
2021/11/06 09:24:00;;;;;;;11.35;6.78;;;10.70;86.60;;;;;;6219649;23;20000;-77
2021/11/06 09:26:27;;;;;;;12.32;8.35;;;11.20;82.40;;;;;;6245371;23;20010;-77
2021/11/06 09:28:54;;;;;;;14.98;8.07;;;10.50;80.60;;;;;;6219868;23;20004;-78
2021/11/06 09:31:20;;;;;;;14.07;7.90;;;10.00;82.20;;;;;;6219501;23;20008;-79
2021/11/06 09:33:47;;;;;;;10.05;7.03;;;9.60;83.50;;;;;;6245851;23;20457;-79
2021/11/06 09:36:13;;;;;;;15.20;7.07;;;9.30;84.60;;;;;;6245809;23;20076;-79
2021/11/06 09:38:40;;;;;;;11.43;7.60;;;8.50;86.40;;;;;;6245510;23;19996;-79
2021/11/06 09:41:09;;;;;;;10.63;7.30;;;7.70;89.00;;;;;;6244483;23;20007;-79
2021/11/06 09:43:36;;;;;;;11.57;7.53;;;7.70;90.70;;;;;;6246585;23;20004;-79
2021/11/06 09:46:03;;;;;;;11.70;8.45;;;7.70;90.20;;;;;;6219685;23;20012;-78
2021/11/06 09:48:30;;;;;;;13.60;8.38;;;6.60;92.00;;;;;;6219722;23;20036;-80
2021/11/06 09:50:59;;;;;;;12.88;8.30;;;5.80;94.60;;;;;;6219975;23;20000;-78
2021/11/06 09:53:27;;;;;;;12.88;8.45;;;5.30;96.40;;;;;;6244964;23;20084;-78
2021/11/06 09:55:54;;;;;;;11.93;8.32;;;4.80;97.60;;;;;;6217694;23;20046;-78
2021/11/06 09:58:20;;;;;;;15.32;9.98;;;4.60;98.00;;;;;;6246490;23;20640;-78
2021/11/06 10:00:46;;;;;;;15.32;9.75;;;4.90;98.00;;;;;;6219727;23;20008;-78
2021/11/06 10:03:13;;;;;;;14.57;10.05;;;5.50;98.00;;;;;;6245078;23;20375;-78
2021/11/06 10:05:49;;;;;;;17.83;11.25;;;6.80;98.00;;;;;;6245144;23;20079;-79
2021/11/06 10:08:17;;;;;;;19.25;13.23;;;8.10;94.10;;;;;;6218289;23;20016;-79
2021/11/06 10:10:44;;;;;;;19.65;12.35;;;9.00;91.50;;;;;;6245729;23;20018;-79
2021/11/06 10:13:10;;;;;;;14.88;10.20;;;8.70;89.90;;;;;;6220259;23;20007;-79
2021/11/06 10:15:43;;;;;;;19.27;12.75;;;7.70;91.70;;;;;;6246936;23;20000;-79
2021/11/06 10:18:16;;;;;;;20.83;12.65;;;7.40;95.00;;;;;;6248854;23;20369;-80
2021/11/06 10:20:42;;;;;;;25.63;19.33;;;7.80;94.10;;;;;;6222849;23;20298;-78
2021/11/06 10:23:08;;;;;;;16.73;10.52;;;8.30;92.60;;;;;;6249520;23;20008;-78
2021/11/06 10:25:34;;;;;;;15.55;10.40;;;8.10;93.90;;;;;;6248238;23;20889;-78
2021/11/06 10:28:09;;;;;;;18.63;10.90;;;8.10;94.10;;;;;;6249510;23;20014;-77
2021/11/06 10:30:38;;;;;;;17.15;11.10;;;8.60;93.90;;;;;;6249663;23;20012;-78
2021/11/06 10:33:12;;;;;;;16.67;10.55;;;8.40;92.50;;;;;;6250301;23;20418;-77
2021/11/06 10:35:43;;;;;;;34.08;9.43;;;8.00;94.30;;;;;;6222768;23;20089;-78
2021/11/06 10:38:19;;;;;;;34.60;12.02;;;7.50;95.00;;;;;;6249388;23;20000;-78
2021/11/06 10:41:07;;;;;;;25.25;11.38;;;6.70;96.70;;;;;;6247420;23;20000;-75
2021/11/06 10:43:37;;;;;;;53.13;13.32;;;6.20;97.90;;;;;;6249599;23;20000;-77
2021/11/06 10:46:04;;;;;;;66.32;15.80;;;5.80;98.00;;;;;;6223282;23;20269;-79
2021/11/06 10:48:34;;;;;;;25.77;13.50;;;5.40;98.00;;;;;;6248989;23;20007;-77
2021/11/06 10:51:13;;;;;;;73.72;17.52;;;5.10;98.00;;;;;;6249057;23;20353;-76
2021/11/06 10:53:50;;;;;;;29.83;15.52;;;5.00;98.00;;;;;;6249763;23;20019;-78
2021/11/06 10:56:46;;;;;;;31.38;17.65;;;5.00;98.00;;;;;;6221481;23;20269;-77
2021/11/06 10:59:21;;;;;;;29.48;15.05;;;5.30;98.00;;;;;;6249412;23;20023;-78
2021/11/06 11:01:56;;;;;;;26.52;15.18;;;5.40;98.00;;;;;;6248833;23;20035;-78
2021/11/06 11:04:25;;;;;;;30.80;15.70;;;5.90;98.00;;;;;;6249285;23;20273;-77
2021/11/06 11:06:57;;;;;;;110.22;18.17;;;6.00;98.00;;;;;;6249089;23;20011;-78
2021/11/06 11:09:25;;;;;;;35.55;17.42;;;5.90;98.00;;;;;;6249073;23;20008;-77
2021/11/06 11:11:54;;;;;;;28.67;17.05;;;5.60;98.00;;;;;;6247681;23;20007;-77
2021/11/06 11:14:27;;;;;;;26.63;16.17;;;5.60;98.00;;;;;;6248650;23;20247;-79
2021/11/06 11:17:00;;;;;;;35.58;16.73;;;5.50;98.00;;;;;;6222520;23;20369;-79
2021/11/06 11:19:34;;;;;;;43.83;18.65;;;5.40;98.00;;;;;;6249198;23;20008;-78
2021/11/06 11:22:00;;;;;;;;;;;5.40;98.00;;;;;;6248793;23;20032;-78
2021/11/06 11:24:26;;;;;;;46.13;19.27;;;5.10;98.00;;;;;;6222387;23;19911;-78
2021/11/06 11:26:54;;;;;;;37.47;19.10;;;5.00;98.00;;;;;;6247707;23;20333;-78
2021/11/06 11:29:29;;;;;;;48.65;23.25;;;4.80;98.00;;;;;;6248573;23;20000;-77
2021/11/06 11:31:56;;;;;;;54.95;26.67;;;4.80;98.00;;;;;;6248717;23;20266;-78
2021/11/06 11:34:22;;;;;;;54.80;23.90;;;4.80;98.00;;;;;;6222235;23;20006;-78
2021/11/06 11:36:49;;;;;;;83.25;24.00;;;4.60;98.00;;;;;;6222306;23;20040;-78
2021/11/06 11:39:18;;;;;;;50.00;23.35;;;4.50;98.00;;;;;;6246877;23;19992;-79
2021/11/06 11:42:25;;;;;;;49.22;24.63;;;4.60;98.00;;;;;;6244285;23;20070;-78
2021/11/06 11:45:18;;;;;;;132.23;23.77;;;5.30;98.00;;;;;;6245981;23;20378;-78
2021/11/06 11:47:49;;;;;;;40.50;21.00;;;5.60;98.00;;;;;;6219598;23;20034;-79
2021/11/06 11:50:24;;;;;;;36.88;19.70;;;5.80;98.00;;;;;;6218963;23;20255;-78
2021/11/06 11:52:52;;;;;;;39.53;21.38;;;5.80;98.00;;;;;;6245451;23;20011;-79
2021/11/06 11:55:44;;;;;;;72.38;25.20;;;5.90;98.00;;;;;;6244902;23;20058;-78
2021/11/06 11:58:21;;;;;;;42.38;21.23;;;6.00;98.00;;;;;;6218523;23;20008;-79
2021/11/06 12:00:59;;;;;;;44.05;25.10;;;6.00;98.00;;;;;;6245398;23;20004;-77
2021/11/06 12:03:27;;;;;;;36.55;21.80;;;6.30;98.00;;;;;;6245259;23;20360;-79
2021/11/06 12:05:53;;;;;;;36.15;19.05;;;6.40;98.00;;;;;;6245063;23;20012;-77
2021/11/06 12:08:21;;;;;;;33.60;20.05;;;6.70;98.00;;;;;;6219681;23;20008;-78
2021/11/06 12:10:59;;;;;;;27.10;17.42;;;6.90;98.00;;;;;;6241854;23;20004;-78
2021/11/06 12:13:28;;;;;;;30.98;18.88;;;7.00;98.00;;;;;;6218425;23;20314;-78
2021/11/06 12:16:07;;;;;;;33.33;20.60;;;7.40;98.00;;;;;;6244623;23;20419;-77
2021/11/06 12:18:33;;;;;;;35.40;19.88;;;7.50;98.00;;;;;;6219540;23;20271;-77
2021/11/06 12:21:24;;;;;;;33.00;20.85;;;7.50;98.00;;;;;;6245857;23;20000;-78
2021/11/06 12:24:08;;;;;;;42.17;24.25;;;7.40;98.00;;;;;;6245366;23;20004;-77
2021/11/06 12:26:47;;;;;;;37.40;23.67;;;7.40;98.00;;;;;;6244528;23;20027;-79
2021/11/06 12:29:17;;;;;;;40.85;23.92;;;7.10;98.00;;;;;;6219013;23;20016;-79
2021/11/06 12:31:44;;;;;;;26.92;17.63;;;7.20;98.00;;;;;;6245907;23;20009;-79
2021/11/06 12:34:35;;;;;;;35.72;22.65;;;7.40;98.00;;;;;;6218950;23;20179;-79
2021/11/06 12:37:05;;;;;;;33.85;20.73;;;7.30;98.00;;;;;;6246122;23;20000;-79